sensor_id;sensor_type;location;lat;lon;timestamp;pressure;altitude;pressure_sealevel;temperature;humidity
31299;BME280;17927;52.350;13.402;2022-10-30T00:00:49;101521.03;;;19.44;59.95
31299;BME280;17927;52.350;13.402;2022-10-30T00:03:16;101516.59;;;19.43;59.67
31299;BME280;17927;52.350;13.402;2022-10-30T00:05:45;101518.84;;;19.40;59.69
31299;BME280;17927;52.350;13.402;2022-10-30T00:08:12;101518.19;;;19.38;59.61
31299;BME280;17927;52.350;13.402;2022-10-30T00:10:38;101517.88;;;19.32;60.00
31299;BME280;17927;52.350;13.402;2022-10-30T00:13:04;101520.81;;;19.31;59.82
31299;BME280;17927;52.350;13.402;2022-10-30T00:15:29;101525.59;;;19.29;59.94
31299;BME280;17927;52.350;13.402;2022-10-30T00:17:54;101524.09;;;19.26;59.97
31299;BME280;17927;52.350;13.402;2022-10-30T00:20:19;101517.06;;;19.24;60.10
31299;BME280;17927;52.350;13.402;2022-10-30T00:22:45;101509.41;;;19.19;59.95
31299;BME280;17927;52.350;13.402;2022-10-30T00:25:10;101500.72;;;19.15;59.92
31299;BME280;17927;52.350;13.402;2022-10-30T00:27:35;101505.72;;;19.12;60.04
31299;BME280;17927;52.350;13.402;2022-10-30T00:30:00;101503.13;;;19.10;60.28
31299;BME280;17927;52.350;13.402;2022-10-30T00:32:26;101498.03;;;19.07;60.53
31299;BME280;17927;52.350;13.402;2022-10-30T00:34:52;101503.00;;;19.04;60.68
31299;BME280;17927;52.350;13.402;2022-10-30T00:37:17;101495.00;;;19.02;60.38
31299;BME280;17927;52.350;13.402;2022-10-30T00:39:42;101489.03;;;18.98;60.79
31299;BME280;17927;52.350;13.402;2022-10-30T00:42:12;101492.81;;;18.97;61.16
31299;BME280;17927;52.350;13.402;2022-10-30T00:44:47;101489.50;;;18.94;61.29
31299;BME280;17927;52.350;13.402;2022-10-30T00:47:27;101479.59;;;18.93;61.00
31299;BME280;17927;52.350;13.402;2022-10-30T00:50:14;101488.00;;;18.91;60.94
31299;BME280;17927;52.350;13.402;2022-10-30T00:52:47;101483.75;;;18.89;61.08
31299;BME280;17927;52.350;13.402;2022-10-30T00:55:18;101481.84;;;18.89;61.10
31299;BME280;17927;52.350;13.402;2022-10-30T00:57:46;101477.41;;;18.88;61.12
31299;BME280;17927;52.350;13.402;2022-10-30T01:00:12;101474.19;;;18.84;60.78
31299;BME280;17927;52.350;13.402;2022-10-30T01:02:39;101477.94;;;18.83;61.14
31299;BME280;17927;52.350;13.402;2022-10-30T01:05:05;101469.06;;;18.81;61.24
31299;BME280;17927;52.350;13.402;2022-10-30T01:07:31;101467.56;;;18.79;60.94
31299;BME280;17927;52.350;13.402;2022-10-30T01:09:56;101477.81;;;18.77;61.06
31299;BME280;17927;52.350;13.402;2022-10-30T01:12:21;101471.69;;;18.75;61.27
31299;BME280;17927;52.350;13.402;2022-10-30T01:14:53;101471.88;;;18.73;61.11
31299;BME280;17927;52.350;13.402;2022-10-30T01:23:36;101478.78;;;18.61;61.57
31299;BME280;17927;52.350;13.402;2022-10-30T01:26:27;101471.75;;;18.58;61.58
31299;BME280;17927;52.350;13.402;2022-10-30T01:32:33;101476.25;;;18.51;61.43
31299;BME280;17927;52.350;13.402;2022-10-30T01:35:33;101470.09;;;18.49;61.42
31299;BME280;17927;52.350;13.402;2022-10-30T01:38:06;101467.72;;;18.46;61.48
31299;BME280;17927;52.350;13.402;2022-10-30T01:40:35;101466.69;;;18.47;61.44
31299;BME280;17927;52.350;13.402;2022-10-30T01:43:00;101464.13;;;18.45;61.17
31299;BME280;17927;52.350;13.402;2022-10-30T01:51:18;101457.66;;;18.38;61.84
31299;BME280;17927;52.350;13.402;2022-10-30T01:54:00;101457.88;;;18.36;61.53
31299;BME280;17927;52.350;13.402;2022-10-30T01:56:59;101453.41;;;18.35;61.77
31299;BME280;17927;52.350;13.402;2022-10-30T01:59:36;101447.44;;;18.32;62.00
31299;BME280;17927;52.350;13.402;2022-10-30T02:02:04;101446.59;;;18.31;61.95
31299;BME280;17927;52.350;13.402;2022-10-30T02:04:30;101443.84;;;18.31;62.09
31299;BME280;17927;52.350;13.402;2022-10-30T02:06:55;101453.94;;;18.31;62.08
31299;BME280;17927;52.350;13.402;2022-10-30T02:09:21;101450.34;;;18.30;62.10
31299;BME280;17927;52.350;13.402;2022-10-30T02:11:46;101441.28;;;18.30;61.79
31299;BME280;17927;52.350;13.402;2022-10-30T02:14:16;101445.06;;;18.29;61.99
31299;BME280;17927;52.350;13.402;2022-10-30T02:16:45;101441.66;;;18.26;62.05
31299;BME280;17927;52.350;13.402;2022-10-30T02:19:11;101439.94;;;18.25;62.08
31299;BME280;17927;52.350;13.402;2022-10-30T02:21:37;101432.78;;;18.24;61.83
31299;BME280;17927;52.350;13.402;2022-10-30T02:24:02;101439.28;;;18.23;62.14
31299;BME280;17927;52.350;13.402;2022-10-30T02:26:27;101444.75;;;18.23;61.98
31299;BME280;17927;52.350;13.402;2022-10-30T02:28:52;101441.13;;;18.23;61.77
31299;BME280;17927;52.350;13.402;2022-10-30T02:31:18;101447.47;;;18.23;61.98
31299;BME280;17927;52.350;13.402;2022-10-30T02:33:45;101442.84;;;18.24;62.20
31299;BME280;17927;52.350;13.402;2022-10-30T02:36:10;101433.81;;;18.23;62.37
31299;BME280;17927;52.350;13.402;2022-10-30T02:38:35;101429.38;;;18.22;61.96
31299;BME280;17927;52.350;13.402;2022-10-30T02:41:00;101424.91;;;18.21;62.06
31299;BME280;17927;52.350;13.402;2022-10-30T02:43:26;101425.13;;;18.20;62.10
31299;BME280;17927;52.350;13.402;2022-10-30T02:45:51;101426.13;;;18.19;62.21
31299;BME280;17927;52.350;13.402;2022-10-30T02:48:16;101436.22;;;18.18;62.02
31299;BME280;17927;52.350;13.402;2022-10-30T02:50:42;101426.31;;;18.17;62.31
31299;BME280;17927;52.350;13.402;2022-10-30T02:53:07;101427.31;;;18.16;62.10
31299;BME280;17927;52.350;13.402;2022-10-30T02:55:32;101430.06;;;18.16;62.25
31299;BME280;17927;52.350;13.402;2022-10-30T02:57:57;101437.41;;;18.16;62.39
31299;BME280;17927;52.350;13.402;2022-10-30T03:00:23;101425.63;;;18.15;62.14
31299;BME280;17927;52.350;13.402;2022-10-30T03:02:53;101424.78;;;18.15;62.05
31299;BME280;17927;52.350;13.402;2022-10-30T03:05:19;101431.47;;;18.12;62.15
31299;BME280;17927;52.350;13.402;2022-10-30T03:07:44;101427.03;;;18.11;62.05
31299;BME280;17927;52.350;13.402;2022-10-30T03:10:12;101436.06;;;18.11;62.21
31299;BME280;17927;52.350;13.402;2022-10-30T03:12:37;101433.53;;;18.10;61.92
31299;BME280;17927;52.350;13.402;2022-10-30T03:15:03;101433.53;;;18.10;62.27
31299;BME280;17927;52.350;13.402;2022-10-30T03:17:28;101432.84;;;18.08;62.11
31299;BME280;17927;52.350;13.402;2022-10-30T03:19:54;101440.16;;;18.07;62.41
31299;BME280;17927;52.350;13.402;2022-10-30T03:22:19;101443.78;;;18.08;62.34
31299;BME280;17927;52.350;13.402;2022-10-30T03:24:44;101448.56;;;18.06;62.29
31299;BME280;17927;52.350;13.402;2022-10-30T03:27:09;101440.16;;;18.07;62.04
31299;BME280;17927;52.350;13.402;2022-10-30T03:29:34;101441.03;;;18.08;62.01
31299;BME280;17927;52.350;13.402;2022-10-30T03:32:00;101452.13;;;18.06;61.83
31299;BME280;17927;52.350;13.402;2022-10-30T03:34:26;101444.13;;;18.05;62.07
31299;BME280;17927;52.350;13.402;2022-10-30T03:36:51;101440.69;;;18.03;62.00
31299;BME280;17927;52.350;13.402;2022-10-30T03:39:16;101432.50;;;18.03;61.74
31299;BME280;17927;52.350;13.402;2022-10-30T03:41:42;101418.84;;;18.03;61.74
31299;BME280;17927;52.350;13.402;2022-10-30T03:44:07;101420.88;;;18.01;61.71
31299;BME280;17927;52.350;13.402;2022-10-30T03:46:32;101409.13;;;18.00;61.77
31299;BME280;17927;52.350;13.402;2022-10-30T03:48:58;101411.84;;;18.00;62.02
31299;BME280;17927;52.350;13.402;2022-10-30T03:51:23;101404.69;;;17.99;62.22
31299;BME280;17927;52.350;13.402;2022-10-30T03:53:48;101402.97;;;17.98;62.05
31299;BME280;17927;52.350;13.402;2022-10-30T03:56:13;101393.03;;;17.97;62.20
31299;BME280;17927;52.350;13.402;2022-10-30T03:58:39;101385.03;;;17.95;62.17
31299;BME280;17927;52.350;13.402;2022-10-30T04:01:05;101384.00;;;17.96;62.32
31299;BME280;17927;52.350;13.402;2022-10-30T04:03:31;101383.00;;;17.98;62.50
31299;BME280;17927;52.350;13.402;2022-10-30T04:05:56;101376.47;;;17.99;62.55
31299;BME280;17927;52.350;13.402;2022-10-30T04:08:21;101362.81;;;17.99;62.42
31299;BME280;17927;52.350;13.402;2022-10-30T04:10:46;101351.03;;;17.98;62.47
31299;BME280;17927;52.350;13.402;2022-10-30T04:13:14;101374.81;;;17.98;62.57
31299;BME280;17927;52.350;13.402;2022-10-30T04:15:40;101393.75;;;17.99;62.50
31299;BME280;17927;52.350;13.402;2022-10-30T04:18:05;101403.66;;;18.00;62.20
31299;BME280;17927;52.350;13.402;2022-10-30T04:20:31;101385.34;;;18.01;62.76
31299;BME280;17927;52.350;13.402;2022-10-30T04:22:58;101382.47;;;18.02;62.51
31299;BME280;17927;52.350;13.402;2022-10-30T04:25:24;101363.13;;;18.04;62.72
31299;BME280;17927;52.350;13.402;2022-10-30T04:27:50;101347.59;;;18.04;62.81
31299;BME280;17927;52.350;13.402;2022-10-30T04:30:16;101360.25;;;18.05;62.77
31299;BME280;17927;52.350;13.402;2022-10-30T04:32:45;101361.28;;;18.04;62.63
31299;BME280;17927;52.350;13.402;2022-10-30T04:35:10;101387.75;;;18.04;62.88
31299;BME280;17927;52.350;13.402;2022-10-30T04:37:36;101392.19;;;18.05;62.61
31299;BME280;17927;52.350;13.402;2022-10-30T04:40:01;101408.59;;;18.05;62.80
31299;BME280;17927;52.350;13.402;2022-10-30T04:42:26;101408.59;;;18.05;62.55
31299;BME280;17927;52.350;13.402;2022-10-30T04:44:51;101412.53;;;18.02;62.67
31299;BME280;17927;52.350;13.402;2022-10-30T04:47:17;101414.41;;;18.02;62.37
31299;BME280;17927;52.350;13.402;2022-10-30T04:49:42;101412.69;;;18.01;62.32
31299;BME280;17927;52.350;13.402;2022-10-30T04:52:07;101413.72;;;18.00;62.38
31299;BME280;17927;52.350;13.402;2022-10-30T04:54:32;101407.22;;;18.01;62.36
31299;BME280;17927;52.350;13.402;2022-10-30T04:56:58;101411.84;;;18.00;62.66
31299;BME280;17927;52.350;13.402;2022-10-30T04:59:23;101425.69;;;17.99;62.59
31299;BME280;17927;52.350;13.402;2022-10-30T05:01:48;101418.34;;;17.99;62.46
31299;BME280;17927;52.350;13.402;2022-10-30T05:04:13;101417.31;;;18.00;62.67
31299;BME280;17927;52.350;13.402;2022-10-30T05:06:38;101421.91;;;18.00;62.69
31299;BME280;17927;52.350;13.402;2022-10-30T05:09:04;101428.25;;;18.00;62.64
31299;BME280;17927;52.350;13.402;2022-10-30T05:11:29;101432.69;;;18.01;62.63
31299;BME280;17927;52.350;13.402;2022-10-30T05:13:55;101432.84;;;18.00;62.82
31299;BME280;17927;52.350;13.402;2022-10-30T05:16:20;101429.28;;;17.99;62.34
31299;BME280;17927;52.350;13.402;2022-10-30T05:18:45;101424.00;;;17.98;62.59
31299;BME280;17927;52.350;13.402;2022-10-30T05:21:10;101421.25;;;17.98;62.71
31299;BME280;17927;52.350;13.402;2022-10-30T05:23:36;101428.56;;;17.97;62.54
31299;BME280;17927;52.350;13.402;2022-10-30T05:26:01;101422.09;;;17.98;62.59
31299;BME280;17927;52.350;13.402;2022-10-30T05:28:27;101425.69;;;17.99;62.50
31299;BME280;17927;52.350;13.402;2022-10-30T05:30:53;101410.34;;;17.98;62.55
31299;BME280;17927;52.350;13.402;2022-10-30T05:33:18;101420.56;;;17.95;62.45
31299;BME280;17927;52.350;13.402;2022-10-30T05:35:44;101419.69;;;17.95;62.47
31299;BME280;17927;52.350;13.402;2022-10-30T05:38:09;101406.03;;;17.95;62.63
31299;BME280;17927;52.350;13.402;2022-10-30T05:40:35;101397.81;;;17.95;62.69
31299;BME280;17927;52.350;13.402;2022-10-30T05:43:00;101394.25;;;17.94;62.43
31299;BME280;17927;52.350;13.402;2022-10-30T05:45:25;101373.41;;;17.93;62.58
31299;BME280;17927;52.350;13.402;2022-10-30T05:47:55;101359.75;;;17.93;62.88
31299;BME280;17927;52.350;13.402;2022-10-30T05:50:21;101342.66;;;17.91;62.69
31299;BME280;17927;52.350;13.402;2022-10-30T05:52:46;101368.47;;;17.89;62.61
31299;BME280;17927;52.350;13.402;2022-10-30T05:55:11;101385.91;;;17.88;62.75
31299;BME280;17927;52.350;13.402;2022-10-30T05:57:36;101400.41;;;17.88;63.14
31299;BME280;17927;52.350;13.402;2022-10-30T06:00:03;101409.47;;;17.89;62.88
31299;BME280;17927;52.350;13.402;2022-10-30T06:02:28;101422.94;;;17.90;62.94
31299;BME280;17927;52.350;13.402;2022-10-30T06:04:53;101408.44;;;17.90;62.81
31299;BME280;17927;52.350;13.402;2022-10-30T06:07:18;101395.63;;;17.90;63.02
31299;BME280;17927;52.350;13.402;2022-10-30T06:09:44;101391.84;;;17.91;63.14
31299;BME280;17927;52.350;13.402;2022-10-30T06:12:09;101397.31;;;17.91;63.04
31299;BME280;17927;52.350;13.402;2022-10-30T06:14:34;101386.41;;;17.91;62.90
31299;BME280;17927;52.350;13.402;2022-10-30T06:16:59;101380.06;;;17.91;63.21
31299;BME280;17927;52.350;13.402;2022-10-30T06:19:25;101381.75;;;17.92;62.80
31299;BME280;17927;52.350;13.402;2022-10-30T06:21:50;101379.22;;;17.90;62.64
31299;BME280;17927;52.350;13.402;2022-10-30T06:24:15;101375.81;;;17.88;63.05
31299;BME280;17927;52.350;13.402;2022-10-30T06:26:40;101374.09;;;17.87;63.00
31299;BME280;17927;52.350;13.402;2022-10-30T06:29:06;101378.72;;;17.87;62.77
31299;BME280;17927;52.350;13.402;2022-10-30T06:31:31;101377.72;;;17.88;62.58
31299;BME280;17927;52.350;13.402;2022-10-30T06:33:56;101387.09;;;17.85;62.71
31299;BME280;17927;52.350;13.402;2022-10-30T06:36:22;101394.25;;;17.86;63.13
31299;BME280;17927;52.350;13.402;2022-10-30T06:38:47;101401.44;;;17.87;62.86
31299;BME280;17927;52.350;13.402;2022-10-30T06:41:12;101401.28;;;17.89;62.94
31299;BME280;17927;52.350;13.402;2022-10-30T06:43:37;101402.97;;;17.90;63.06
31299;BME280;17927;52.350;13.402;2022-10-30T06:46:03;101393.56;;;17.92;62.88
31299;BME280;17927;52.350;13.402;2022-10-30T06:48:28;101394.78;;;17.90;63.28
31299;BME280;17927;52.350;13.402;2022-10-30T06:50:55;101391.19;;;17.89;63.21
31299;BME280;17927;52.350;13.402;2022-10-30T06:53:20;101380.25;;;17.89;63.08
31299;BME280;17927;52.350;13.402;2022-10-30T06:55:56;101379.91;;;17.92;63.48
31299;BME280;17927;52.350;13.402;2022-10-30T06:58:22;101385.84;;;17.96;63.62
31299;BME280;17927;52.350;13.402;2022-10-30T07:00:49;101383.66;;;18.00;63.50
31299;BME280;17927;52.350;13.402;2022-10-30T07:03:14;101387.59;;;18.05;63.57
31299;BME280;17927;52.350;13.402;2022-10-30T07:05:40;101395.91;;;18.12;63.71
31299;BME280;17927;52.350;13.402;2022-10-30T07:08:05;101383.41;;;18.18;63.93
31299;BME280;17927;52.350;13.402;2022-10-30T07:10:30;101382.69;;;18.24;63.85
31299;BME280;17927;52.350;13.402;2022-10-30T07:12:56;101400.44;;;18.28;63.91
31299;BME280;17927;52.350;13.402;2022-10-30T07:15:23;101401.63;;;18.34;63.87
31299;BME280;17927;52.350;13.402;2022-10-30T07:17:56;101408.44;;;18.38;63.76
31299;BME280;17927;52.350;13.402;2022-10-30T07:20:22;101392.72;;;18.40;64.00
31299;BME280;17927;52.350;13.402;2022-10-30T07:22:47;101388.19;;;18.47;63.49
31299;BME280;17927;52.350;13.402;2022-10-30T07:25:13;101390.59;;;18.50;63.79
31299;BME280;17927;52.350;13.402;2022-10-30T07:27:46;101394.00;;;18.52;63.47
31299;BME280;17927;52.350;13.402;2022-10-30T07:30:13;101395.50;;;18.55;63.59
31299;BME280;17927;52.350;13.402;2022-10-30T07:32:39;101408.00;;;18.58;63.53
31299;BME280;17927;52.350;13.402;2022-10-30T07:35:05;101404.22;;;18.59;63.61
31299;BME280;17927;52.350;13.402;2022-10-30T07:37:31;101405.94;;;18.60;63.54
31299;BME280;17927;52.350;13.402;2022-10-30T07:39:56;101407.66;;;18.61;63.27
31299;BME280;17927;52.350;13.402;2022-10-30T07:42:22;101419.91;;;18.65;63.20
31299;BME280;17927;52.350;13.402;2022-10-30T07:44:47;101417.84;;;18.67;63.28
31299;BME280;17927;52.350;13.402;2022-10-30T07:47:12;101428.09;;;18.73;63.38
31299;BME280;17927;52.350;13.402;2022-10-30T07:49:37;101422.72;;;18.80;63.72
31299;BME280;17927;52.350;13.402;2022-10-30T07:52:03;101408.31;;;18.86;63.73
31299;BME280;17927;52.350;13.402;2022-10-30T07:54:28;101409.50;;;18.92;63.46
31299;BME280;17927;52.350;13.402;2022-10-30T07:56:53;101406.22;;;18.96;63.42
31299;BME280;17927;52.350;13.402;2022-10-30T07:59:19;101427.56;;;19.01;63.77
31299;BME280;17927;52.350;13.402;2022-10-30T08:01:44;101424.28;;;19.06;63.26
31299;BME280;17927;52.350;13.402;2022-10-30T08:04:09;101399.28;;;19.09;63.61
31299;BME280;17927;52.350;13.402;2022-10-30T08:06:37;101416.84;;;19.14;63.55
31299;BME280;17927;52.350;13.402;2022-10-30T08:09:03;101408.75;;;19.21;63.63
31299;BME280;17927;52.350;13.402;2022-10-30T08:11:28;101417.09;;;19.28;63.73
31299;BME280;17927;52.350;13.402;2022-10-30T08:13:53;101417.38;;;19.33;63.68
31299;BME280;17927;52.350;13.402;2022-10-30T08:16:19;101429.97;;;19.42;63.85
31299;BME280;17927;52.350;13.402;2022-10-30T08:18:44;101435.19;;;19.52;63.50
31299;BME280;17927;52.350;13.402;2022-10-30T08:21:10;101432.19;;;19.62;63.53
31299;BME280;17927;52.350;13.402;2022-10-30T08:23:35;101429.75;;;19.67;63.11
31299;BME280;17927;52.350;13.402;2022-10-30T08:26:00;101435.88;;;19.69;62.85
31299;BME280;17927;52.350;13.402;2022-10-30T08:28:26;101433.25;;;19.76;63.00
31299;BME280;17927;52.350;13.402;2022-10-30T08:30:51;101432.47;;;19.82;63.20
31299;BME280;17927;52.350;13.402;2022-10-30T08:33:17;101430.38;;;19.92;63.24
31299;BME280;17927;52.350;13.402;2022-10-30T08:35:46;101428.56;;;20.00;62.87
31299;BME280;17927;52.350;13.402;2022-10-30T08:38:12;101439.16;;;20.03;62.83
31299;BME280;17927;52.350;13.402;2022-10-30T08:40:38;101420.41;;;20.06;62.71
31299;BME280;17927;52.350;13.402;2022-10-30T08:43:03;101435.09;;;20.14;62.56
31299;BME280;17927;52.350;13.402;2022-10-30T08:45:28;101431.56;;;20.20;62.90
31299;BME280;17927;52.350;13.402;2022-10-30T08:48:01;101438.66;;;20.29;62.58
31299;BME280;17927;52.350;13.402;2022-10-30T08:50:30;101443.66;;;20.41;62.41
31299;BME280;17927;52.350;13.402;2022-10-30T08:52:59;101436.16;;;20.49;62.06
31299;BME280;17927;52.350;13.402;2022-10-30T08:55:25;101419.78;;;20.56;61.94
31299;BME280;17927;52.350;13.402;2022-10-30T08:57:51;101432.75;;;20.62;61.97
31299;BME280;17927;52.350;13.402;2022-10-30T09:00:16;101422.22;;;20.66;61.65
31299;BME280;17927;52.350;13.402;2022-10-30T09:02:41;101430.50;;;20.73;61.56
31299;BME280;17927;52.350;13.402;2022-10-30T09:05:07;101428.09;;;20.78;61.37
31299;BME280;17927;52.350;13.402;2022-10-30T09:07:33;101424.53;;;20.84;61.14
31299;BME280;17927;52.350;13.402;2022-10-30T09:09:59;101433.88;;;20.90;61.61
31299;BME280;17927;52.350;13.402;2022-10-30T09:12:24;101427.63;;;20.96;61.25
31299;BME280;17927;52.350;13.402;2022-10-30T09:14:49;101423.03;;;21.03;61.22
31299;BME280;17927;52.350;13.402;2022-10-30T09:17:14;101429.44;;;21.10;61.44
31299;BME280;17927;52.350;13.402;2022-10-30T09:19:40;101426.78;;;21.17;61.03
31299;BME280;17927;52.350;13.402;2022-10-30T09:22:05;101425.78;;;21.25;61.11
31299;BME280;17927;52.350;13.402;2022-10-30T09:24:30;101428.41;;;21.33;60.53
31299;BME280;17927;52.350;13.402;2022-10-30T09:26:56;101417.47;;;21.40;60.47
31299;BME280;17927;52.350;13.402;2022-10-30T09:29:21;101401.69;;;21.49;60.33
31299;BME280;17927;52.350;13.402;2022-10-30T09:31:47;101403.44;;;21.56;60.48
31299;BME280;17927;52.350;13.402;2022-10-30T09:36:37;101410.31;;;21.74;60.21
31299;BME280;17927;52.350;13.402;2022-10-30T09:39:03;101402.97;;;21.81;60.09
31299;BME280;17927;52.350;13.402;2022-10-30T09:42:13;101415.72;;;21.89;60.07
31299;BME280;17927;52.350;13.402;2022-10-30T09:47:59;101422.34;;;22.01;59.59
31299;BME280;17927;52.350;13.402;2022-10-30T09:50:56;101418.97;;;22.06;59.60
31299;BME280;17927;52.350;13.402;2022-10-30T09:53:38;101408.00;;;22.13;60.08
31299;BME280;17927;52.350;13.402;2022-10-30T09:56:14;101409.94;;;22.19;59.68
31299;BME280;17927;52.350;13.402;2022-10-30T09:59:11;101418.00;;;22.27;59.95
31299;BME280;17927;52.350;13.402;2022-10-30T10:01:50;101411.03;;;22.31;59.31
31299;BME280;17927;52.350;13.402;2022-10-30T10:04:32;101415.75;;;22.38;59.37
31299;BME280;17927;52.350;13.402;2022-10-30T10:07:02;101417.69;;;22.44;58.94
31299;BME280;17927;52.350;13.402;2022-10-30T10:09:32;101418.78;;;22.49;58.71
31299;BME280;17927;52.350;13.402;2022-10-30T10:12:08;101421.34;;;22.58;58.76
31299;BME280;17927;52.350;13.402;2022-10-30T10:14:40;101415.03;;;22.64;58.61
31299;BME280;17927;52.350;13.402;2022-10-30T10:17:13;101419.50;;;22.72;58.78
31299;BME280;17927;52.350;13.402;2022-10-30T10:19:45;101423.31;;;22.77;58.18
31299;BME280;17927;52.350;13.402;2022-10-30T10:22:32;101419.06;;;22.81;57.73
31299;BME280;17927;52.350;13.402;2022-10-30T10:25:01;101413.78;;;22.87;58.12
31299;BME280;17927;52.350;13.402;2022-10-30T10:27:58;101418.47;;;22.93;57.37
31299;BME280;17927;52.350;13.402;2022-10-30T10:30:46;101407.66;;;22.98;57.63
31299;BME280;17927;52.350;13.402;2022-10-30T10:39:12;101425.31;;;23.24;57.61
31299;BME280;17927;52.350;13.402;2022-10-30T10:41:49;101421.28;;;23.33;57.73
31299;BME280;17927;52.350;13.402;2022-10-30T10:47:13;101419.53;;;23.59;57.14
31299;BME280;17927;52.350;13.402;2022-10-30T10:50:02;101420.81;;;23.70;56.48
31299;BME280;17927;52.350;13.402;2022-10-30T10:52:38;101420.19;;;23.81;56.76
31299;BME280;17927;52.350;13.402;2022-10-30T10:55:13;101416.53;;;23.94;56.55
31299;BME280;17927;52.350;13.402;2022-10-30T10:57:40;101411.00;;;24.08;56.63
31299;BME280;17927;52.350;13.402;2022-10-30T11:00:07;101402.69;;;24.21;55.68
31299;BME280;17927;52.350;13.402;2022-10-30T11:03:04;101404.53;;;24.34;55.07
31299;BME280;17927;52.350;13.402;2022-10-30T11:05:38;101393.44;;;24.41;54.58
31299;BME280;17927;52.350;13.402;2022-10-30T11:08:30;101399.34;;;24.51;54.33
31299;BME280;17927;52.350;13.402;2022-10-30T11:11:03;101391.03;;;24.58;53.92
31299;BME280;17927;52.350;13.402;2022-10-30T11:13:30;101389.47;;;24.69;54.21
31299;BME280;17927;52.350;13.402;2022-10-30T11:18:37;101398.75;;;24.88;53.72
31299;BME280;17927;52.350;13.402;2022-10-30T11:21:10;101396.94;;;25.00;52.68
31299;BME280;17927;52.350;13.402;2022-10-30T11:23:45;101393.88;;;25.08;52.85
31299;BME280;17927;52.350;13.402;2022-10-30T11:29:04;101399.03;;;25.30;51.76
31299;BME280;17927;52.350;13.402;2022-10-30T11:31:32;101392.13;;;25.39;52.20
31299;BME280;17927;52.350;13.402;2022-10-30T11:36:46;101397.66;;;25.65;51.93
31299;BME280;17927;52.350;13.402;2022-10-30T11:42:00;101392.94;;;25.91;50.70
31299;BME280;17927;52.350;13.402;2022-10-30T11:44:30;101401.31;;;25.84;52.77
31299;BME280;17927;52.350;13.402;2022-10-30T11:46:57;101393.84;;;26.03;53.01
31299;BME280;17927;52.350;13.402;2022-10-30T11:49:31;101395.09;;;26.26;50.88
31299;BME280;17927;52.350;13.402;2022-10-30T11:51:57;101387.81;;;26.43;51.08
31299;BME280;17927;52.350;13.402;2022-10-30T11:54:24;101394.19;;;26.63;51.32
31299;BME280;17927;52.350;13.402;2022-10-30T11:56:50;101396.50;;;26.78;51.43
31299;BME280;17927;52.350;13.402;2022-10-30T11:59:19;101378.16;;;26.95;50.76
31299;BME280;17927;52.350;13.402;2022-10-30T12:02:23;101386.38;;;27.14;49.10
31299;BME280;17927;52.350;13.402;2022-10-30T12:04:50;101389.66;;;27.23;49.51
31299;BME280;17927;52.350;13.402;2022-10-30T12:07:23;101375.91;;;27.40;48.39
31299;BME280;17927;52.350;13.402;2022-10-30T12:09:49;101377.38;;;27.54;48.95
31299;BME280;17927;52.350;13.402;2022-10-30T12:12:21;101378.59;;;27.70;48.07
31299;BME280;17927;52.350;13.402;2022-10-30T12:14:47;101383.88;;;27.84;47.67
31299;BME280;17927;52.350;13.402;2022-10-30T12:17:14;101382.50;;;27.98;47.37
31299;BME280;17927;52.350;13.402;2022-10-30T12:19:52;101383.94;;;28.13;46.63
31299;BME280;17927;52.350;13.402;2022-10-30T12:22:34;101387.19;;;28.21;46.29
31299;BME280;17927;52.350;13.402;2022-10-30T12:25:03;101387.16;;;28.33;45.87
31299;BME280;17927;52.350;13.402;2022-10-30T12:27:30;101382.63;;;28.44;46.19
31299;BME280;17927;52.350;13.402;2022-10-30T12:30:05;101382.31;;;28.57;46.56
31299;BME280;17927;52.350;13.402;2022-10-30T12:32:48;101384.91;;;28.76;46.57
31299;BME280;17927;52.350;13.402;2022-10-30T12:35:33;101382.41;;;28.92;46.12
31299;BME280;17927;52.350;13.402;2022-10-30T12:38:00;101381.56;;;29.08;46.48
31299;BME280;17927;52.350;13.402;2022-10-30T12:40:29;101379.63;;;29.26;46.40
31299;BME280;17927;52.350;13.402;2022-10-30T12:43:13;101374.66;;;29.45;45.63
31299;BME280;17927;52.350;13.402;2022-10-30T12:45:43;101386.88;;;29.61;45.86
31299;BME280;17927;52.350;13.402;2022-10-30T12:48:35;101376.28;;;29.80;45.45
31299;BME280;17927;52.350;13.402;2022-10-30T12:51:39;101368.91;;;29.91;44.54
31299;BME280;17927;52.350;13.402;2022-10-30T12:54:16;101367.13;;;30.02;44.15
31299;BME280;17927;52.350;13.402;2022-10-30T12:56:47;101365.31;;;30.13;43.89
31299;BME280;17927;52.350;13.402;2022-10-30T12:59:34;101367.34;;;30.22;43.31
31299;BME280;17927;52.350;13.402;2022-10-30T13:02:19;101366.63;;;30.32;42.89
31299;BME280;17927;52.350;13.402;2022-10-30T13:04:50;101356.13;;;30.40;42.83
31299;BME280;17927;52.350;13.402;2022-10-30T13:07:24;101361.81;;;30.50;42.67
31299;BME280;17927;52.350;13.402;2022-10-30T13:10:15;101359.72;;;30.62;41.75
31299;BME280;17927;52.350;13.402;2022-10-30T13:12:45;101357.81;;;30.68;41.42
31299;BME280;17927;52.350;13.402;2022-10-30T13:15:34;101354.88;;;30.80;40.86
31299;BME280;17927;52.350;13.402;2022-10-30T13:18:18;101355.75;;;30.86;40.63
31299;BME280;17927;52.350;13.402;2022-10-30T13:21:04;101356.97;;;30.95;40.54
31299;BME280;17927;52.350;13.402;2022-10-30T13:24:02;101360.09;;;31.04;39.92
31299;BME280;17927;52.350;13.402;2022-10-30T13:26:44;101347.56;;;31.06;39.91
31299;BME280;17927;52.350;13.402;2022-10-30T13:29:17;101356.59;;;31.13;40.29
31299;BME280;17927;52.350;13.402;2022-10-30T13:32:04;101347.41;;;31.23;39.56